.
WxDataArchive / Data Records for 2009-12-28
2009-12-27 December 2009 2009-12-29

Data Records for Monday, 28 December 2009

Time	Temp	Chill	HIndex	Humid	Dewpt	 Wind 	HiWind	WindDir	Rain 	Barom 
-----	----	-----	------	-----	-----	------	------	-------	-----	----- 
00:00	17.2	17.2	17.2	85	13.5	2	5	248	0.00	29.958 
00:05	17.2	17.2	17.2	85	13.5	3	6	270	0.00	29.958 
00:10	16.9	16.9	16.9	85	13.2	3	6	292	0.00	29.958 
00:15	16.7	16.7	16.7	84	12.7	2	5	248	0.00	29.952 
00:20	16.5	16.5	16.5	84	12.5	2	6	248	0.00	29.952 
00:25	16.4	16.4	16.4	84	12.4	1	4	248	0.00	29.952 
00:30	16.2	16.2	16.2	84	12.2	1	2	270	0.00	29.957 
00:35	16.1	16.1	16.1	84	12.1	2	5	248	0.00	29.957 
00:40	16.1	16.1	16.1	84	12.1	2	5	248	0.00	29.957 
00:45	15.9	15.9	15.9	84	11.9	2	4	248	0.00	29.959 
00:50	15.9	15.9	15.9	84	11.9	2	6	248	0.00	29.959 
00:55	15.9	15.9	15.9	85	12.2	3	7	248	0.00	29.959 
01:00	16.1	16.1	16.1	85	12.4	2	9	248	0.00	29.956 
01:05	15.9	15.9	15.9	84	11.9	2	7	248	0.00	29.956 
01:10	15.9	15.9	15.9	84	11.9	2	5	248	0.00	29.956 
01:15	16.1	16.1	16.1	85	12.4	2	6	248	0.00	29.955 
01:20	16.2	16.2	16.2	85	12.5	1	4	248	0.00	29.955 
01:25	16.4	16.4	16.4	85	12.7	1	5	248	0.00	29.955 
01:30	16.7	16.7	16.7	85	13.0	1	5	248	0.00	29.953 
01:35	16.9	16.9	16.9	85	13.2	2	5	248	0.00	29.953 
01:40	17.2	17.2	17.2	85	13.5	3	6	248	0.00	29.953 
01:45	17.3	17.3	17.3	85	13.6	2	5	248	0.00	29.955 
01:50	17.5	17.5	17.5	85	13.8	2	5	248	0.00	29.955 
01:55	17.7	17.7	17.7	85	14.0	2	6	225	0.00	29.955 
02:00	17.7	17.7	17.7	85	14.0	2	6	248	0.00	29.962 
02:05	17.8	17.8	17.8	85	14.1	2	6	248	0.00	29.962 
02:10	17.8	17.8	17.8	85	14.1	1	4	248	0.00	29.962 
02:15	18.0	18.0	18.0	85	14.3	2	5	248	0.00	29.962 
02:20	18.0	18.0	18.0	84	14.0	2	5	248	0.00	29.962 
02:25	18.0	18.0	18.0	84	14.0	2	4	248	0.00	29.962 
02:30	18.1	18.1	18.1	84	14.1	2	5	248	0.00	29.964 
02:35	18.1	18.1	18.1	84	14.1	2	5	248	0.00	29.964 
02:40	18.1	18.1	18.1	84	14.1	2	6	248	0.00	29.964 
02:45	18.1	18.1	18.1	84	14.1	2	4	248	0.00	29.966 
02:50	18.1	18.1	18.1	84	14.1	2	5	248	0.00	29.966 
02:55	18.3	18.3	18.3	84	14.3	2	5	248	0.00	29.966 
03:00	18.3	18.3	18.3	84	14.3	2	5	248	0.00	29.966 
03:05	18.3	18.3	18.3	84	14.3	2	6	248	0.00	29.966 
03:10	18.3	18.3	18.3	84	14.3	2	7	248	0.00	29.966 
03:15	18.4	18.4	18.4	84	14.4	2	6	248	0.00	29.969 
03:20	18.4	18.4	18.4	84	14.4	2	6	248	0.00	29.969 
03:25	18.4	18.4	18.4	84	14.4	3	7	248	0.00	29.969 
03:30	18.4	18.4	18.4	84	14.4	2	6	270	0.00	29.970 
03:35	18.4	18.4	18.4	84	14.4	2	7	270	0.00	29.970 
03:40	18.4	18.4	18.4	84	14.4	3	7	270	0.00	29.970 
03:45	18.4	18.4	18.4	84	14.4	2	7	248	0.00	29.967 
03:50	18.4	18.4	18.4	84	14.4	1	5	248	0.00	29.967 
03:55	18.6	18.6	18.6	84	14.6	2	4	248	0.00	29.967 
04:00	18.6	18.6	18.6	84	14.6	3	5	248	0.00	29.962 
04:05	18.6	18.6	18.6	84	14.6	2	7	270	0.00	29.962 
04:10	18.6	18.6	18.6	84	14.6	2	6	248	0.00	29.962 
04:15	18.6	18.6	18.6	84	14.6	2	4	248	0.00	29.954 
04:20	18.6	18.6	18.6	84	14.6	2	7	248	0.00	29.954 
04:25	18.4	18.4	18.4	83	14.1	3	6	248	0.00	29.954 
04:30	18.3	18.3	18.3	83	14.0	2	6	248	0.00	29.952 
04:35	18.3	18.3	18.3	83	14.0	2	7	248	0.00	29.952 
04:40	18.4	18.4	18.4	83	14.1	2	6	248	0.00	29.952 
04:45	18.6	18.6	18.6	83	14.3	3	11	248	0.00	29.951 
04:50	18.6	18.6	18.6	83	14.3	2	7	248	0.00	29.951 
04:55	18.4	18.4	18.4	83	14.1	2	7	270	0.00	29.951 
05:00	18.3	12.3	18.3	82	13.7	4	12	270	0.00	29.952 
05:05	18.1	12.0	18.1	82	13.5	4	10	248	0.00	29.952 
05:10	18.1	18.1	18.1	81	13.3	3	7	248	0.00	29.952 
05:15	18.0	18.0	18.0	81	13.2	3	7	248	0.00	29.937 
05:20	18.0	18.0	18.0	81	13.2	2	5	248	0.00	29.937 
05:25	18.0	18.0	18.0	82	13.5	2	6	248	0.00	29.937 
05:30	17.8	17.8	17.8	82	13.3	3	7	248	0.00	29.937 
05:35	17.8	17.8	17.8	82	13.3	3	9	248	0.00	29.937 
05:40	17.7	11.6	17.7	81	12.9	4	10	270	0.00	29.937 
05:45	17.3	17.3	17.3	81	12.5	3	9	248	0.00	29.944 
05:50	17.2	11.0	17.2	81	12.4	4	9	248	0.00	29.944 
05:55	17.2	17.2	17.2	81	12.4	3	7	248	0.00	29.944 
06:00	17.2	17.2	17.2	81	12.4	2	8	248	0.00	29.951 
06:05	17.2	17.2	17.2	82	12.7	2	6	248	0.00	29.951 
06:10	17.2	11.0	17.2	82	12.7	4	10	248	0.00	29.951 
06:15	17.2	11.0	17.2	83	12.9	4	12	248	0.00	29.947 
06:20	17.2	17.2	17.2	83	12.9	3	6	248	0.00	29.947 
06:25	17.2	17.2	17.2	84	13.2	2	5	248	0.00	29.947 
06:30	17.3	11.1	17.3	84	13.3	4	11	248	0.00	29.946 
06:35	17.3	11.1	17.3	84	13.3	4	11	270	0.00	29.946 
06:40	17.3	17.3	17.3	84	13.3	3	10	248	0.00	29.946 
06:45	17.5	17.5	17.5	85	13.8	3	10	248	0.00	29.942 
06:50	17.5	11.3	17.5	85	13.8	4	13	248	0.00	29.942 
06:55	17.5	17.5	17.5	85	13.8	3	7	248	0.00	29.942 
07:00	17.7	17.7	17.7	86	14.2	3	9	248	0.00	29.944 
07:05	17.7	17.7	17.7	86	14.2	3	4	248	0.00	29.944 
07:10	17.8	17.8	17.8	87	14.6	2	6	248	0.00	29.944 
07:15	18.0	18.0	18.0	87	14.8	2	9	248	0.00	29.947 
07:20	18.0	11.9	18.0	87	14.8	4	10	248	0.00	29.947 
07:25	18.1	18.1	18.1	88	15.2	2	7	248	0.00	29.947 
07:30	18.1	18.1	18.1	88	15.2	3	8	248	0.00	29.947 
07:35	18.3	18.3	18.3	88	15.4	2	7	248	0.00	29.947 
07:40	18.4	18.4	18.4	88	15.5	2	7	248	0.00	29.947 
07:45	18.6	18.6	18.6	89	15.9	2	6	248	0.00	29.947 
07:50	18.8	18.8	18.8	89	16.1	2	11	248	0.00	29.947 
07:55	18.9	18.9	18.9	89	16.2	3	7	248	0.00	29.947 
08:00	18.9	18.9	18.9	89	16.2	3	6	248	0.00	29.939 
08:05	18.9	18.9	18.9	89	16.2	3	10	248	0.00	29.939 
08:10	18.9	12.9	18.9	89	16.2	4	9	248	0.00	29.939 
08:15	18.9	18.9	18.9	90	16.5	2	7	248	0.00	29.938 
08:20	18.9	18.9	18.9	90	16.5	2	6	248	0.00	29.938 
08:25	19.1	19.1	19.1	90	16.7	2	7	225	0.00	29.938 
08:30	19.1	19.1	19.1	90	16.7	2	5	248	0.00	29.938 
08:35	19.2	19.2	19.2	90	16.8	2	4	248	0.00	29.938 
08:40	19.2	19.2	19.2	90	16.8	3	11	270	0.00	29.938 
08:45	19.4	13.5	19.4	90	17.0	4	10	248	0.00	29.937 
08:50	19.5	19.5	19.5	90	17.1	3	11	248	0.00	29.937 
08:55	19.7	19.7	19.7	90	17.3	3	6	248	0.00	29.937 
09:00	19.9	19.9	19.9	90	17.5	3	7	248	0.00	29.934 
09:05	20.0	20.0	20.0	91	17.8	3	6	248	0.00	29.934 
09:10	20.2	14.4	20.2	91	18.0	4	9	248	0.00	29.934 
09:15	20.3	14.6	20.3	91	18.1	4	9	248	0.00	29.937 
09:20	20.5	20.5	20.5	91	18.3	3	9	248	0.00	29.937 
09:25	20.6	14.9	20.6	91	18.4	4	10	248	0.00	29.937 
09:30	20.8	20.8	20.8	91	18.6	3	11	248	0.00	29.933 
09:35	21.0	21.0	21.0	91	18.8	3	7	248	0.00	29.933 
09:40	21.1	15.5	21.1	91	18.9	4	9	248	0.00	29.933 
09:45	21.3	21.3	21.3	91	19.1	3	9	248	0.00	29.936 
09:50	21.3	15.7	21.3	91	19.1	4	11	248	0.00	29.936 
09:55	21.4	21.4	21.4	90	18.9	3	9	248	0.00	29.936 
10:00	21.4	15.8	21.4	90	18.9	4	11	248	0.00	29.924 
10:05	21.6	16.1	21.6	90	19.1	4	10	248	0.00	29.924 
10:10	21.6	21.6	21.6	90	19.1	3	7	248	0.00	29.924 
10:15	21.8	16.3	21.8	90	19.3	4	12	248	0.00	29.934 
10:20	21.9	21.9	21.9	90	19.4	3	9	248	0.00	29.934 
10:25	21.9	16.4	21.9	90	19.4	4	9	248	0.00	29.934 
10:30	21.9	16.4	21.9	90	19.4	4	10	248	0.00	29.931 
10:35	21.9	21.9	21.9	90	19.4	3	9	248	0.00	29.931 
10:40	22.1	22.1	22.1	90	19.6	3	10	248	0.00	29.931 
10:45	22.1	15.4	22.1	89	19.4	5	12	248	0.00	29.928 
10:50	22.1	16.6	22.1	89	19.4	4	12	248	0.00	29.928 
10:55	22.2	22.2	22.2	89	19.5	3	12	248	0.00	29.928 
11:00	22.4	17.0	22.4	89	19.7	4	12	248	0.00	29.927 
11:05	22.4	22.4	22.4	89	19.7	3	7	248	0.00	29.927 
11:10	22.5	22.5	22.5	89	19.8	3	9	248	0.00	29.927 
11:15	22.7	22.7	22.7	89	20.0	3	6	248	0.00	29.927 
11:20	22.9	17.6	22.9	89	20.2	4	11	248	0.00	29.927 
11:25	23.0	17.7	23.0	89	20.3	4	6	270	0.00	29.927 
11:30	23.2	23.2	23.2	90	20.7	3	9	248	0.00	29.932 
11:35	23.2	23.2	23.2	90	20.7	3	12	248	0.00	29.932 
11:40	23.3	23.3	23.3	90	20.8	3	13	270	0.00	29.932 
11:45	23.5	18.3	23.5	90	21.0	4	13	248	0.00	29.920 
11:50	23.6	18.4	23.6	90	21.1	4	12	248	0.00	29.920 
11:55	23.8	18.6	23.8	90	21.3	4	12	248	0.00	29.920 
12:00	23.9	18.7	23.9	90	21.4	4	10	248	0.00	29.903 
12:05	24.1	17.8	24.1	90	21.6	5	11	248	0.00	29.903 
12:10	24.2	24.2	24.2	90	21.7	3	6	248	0.00	29.903 
12:15	24.4	24.4	24.4	90	21.9	2	7	248	0.00	29.904 
12:20	24.5	24.5	24.5	91	22.3	3	10	248	0.00	29.904 
12:25	24.7	24.7	24.7	90	22.2	3	9	270	0.00	29.904 
12:30	24.8	19.8	24.8	90	22.3	4	10	270	0.00	29.906 
12:35	25.0	25.0	25.0	90	22.5	3	5	270	0.00	29.906 
12:40	25.3	20.3	25.3	90	22.8	4	13	270	0.00	29.906 
12:45	25.6	25.6	25.6	91	23.3	3	7	270	0.00	29.904 
12:50	25.7	20.8	25.7	91	23.4	4	9	248	0.00	29.904 
12:55	25.8	25.8	25.8	91	23.5	3	8	248	0.00	29.904 
13:00	26.0	26.0	26.0	91	23.7	3	10	248	0.00	29.902 
13:05	26.1	21.3	26.1	91	23.8	4	10	270	0.00	29.902 
13:10	26.3	21.5	26.3	91	24.0	4	12	270	0.00	29.902 
13:15	26.3	26.3	26.3	91	24.0	3	6	270	0.00	29.896 
13:20	26.3	21.5	26.3	90	23.8	4	12	270	0.00	29.896 
13:25	26.3	20.4	26.3	90	23.8	5	11	270	0.00	29.896 
13:30	26.3	21.5	26.3	90	23.8	4	10	270	0.00	29.899 
13:35	26.3	21.5	26.3	90	23.8	4	10	270	0.00	29.899 
13:40	26.3	21.5	26.3	90	23.8	4	9	270	0.00	29.899 
13:45	26.3	26.3	26.3	90	23.8	3	7	248	0.00	29.900 
13:50	26.3	26.3	26.3	90	23.8	3	8	248	0.00	29.900 
13:55	26.4	21.6	26.4	90	23.9	4	11	270	0.00	29.900 
14:00	26.4	21.6	26.4	90	23.9	4	9	270	0.00	29.901 
14:05	26.6	26.6	26.6	90	24.1	3	7	270	0.00	29.901 
14:10	26.6	21.8	26.6	89	23.8	4	12	270	0.00	29.901 
14:15	26.7	26.7	26.7	89	23.9	3	9	270	0.00	29.902 
14:20	26.9	26.9	26.9	88	23.8	3	7	270	0.00	29.902 
14:25	27.0	27.0	27.0	88	23.9	3	7	270	0.00	29.902 
14:30	27.2	22.5	27.2	88	24.1	4	10	270	0.00	29.909 
14:35	27.2	27.2	27.2	88	24.1	3	9	248	0.00	29.909 
14:40	27.2	22.5	27.2	87	23.9	4	9	270	0.00	29.909 
14:45	27.3	27.3	27.3	87	24.0	3	10	248	0.00	29.914 
14:50	27.3	22.6	27.3	87	24.0	4	10	270	0.00	29.914 
14:55	27.5	27.5	27.5	87	24.1	3	5	270	0.00	29.914 
15:00	27.5	27.5	27.5	86	23.9	3	12	248	0.00	29.916 
15:05	27.6	27.6	27.6	86	24.0	3	9	270	0.00	29.916 
15:10	27.6	23.0	27.6	86	24.0	4	12	270	0.00	29.916 
15:15	27.6	23.0	27.6	86	24.0	4	8	270	0.00	29.925 
15:20	27.8	27.8	27.8	86	24.2	3	6	248	0.00	29.925 
15:25	27.8	27.8	27.8	85	23.9	3	6	270	0.00	29.925 
15:30	27.9	23.3	27.9	85	24.0	4	10	270	0.00	29.927 
15:35	27.9	23.3	27.9	85	24.0	4	11	270	0.00	29.927 
15:40	28.1	28.1	28.1	85	24.2	3	7	270	0.00	29.927 
15:45	28.1	28.1	28.1	85	24.2	3	6	270	0.00	29.933 
15:50	28.1	28.1	28.1	85	24.2	3	7	270	0.00	29.933 
15:55	28.1	28.1	28.1	85	24.2	3	10	270	0.00	29.933 
16:00	28.1	28.1	28.1	85	24.2	3	10	270	0.00	29.945 
16:05	28.1	23.6	28.1	85	24.2	4	9	270	0.00	29.945 
16:10	28.2	28.2	28.2	86	24.6	3	10	248	0.00	29.945 
16:15	28.2	28.2	28.2	86	24.6	3	6	270	0.00	29.956 
16:20	28.4	28.4	28.4	86	24.8	2	6	270	0.00	29.956 
16:25	28.4	28.4	28.4	86	24.8	2	5	270	0.00	29.956 
16:30	28.4	28.4	28.4	86	24.8	2	6	248	0.00	29.965 
16:35	28.5	28.5	28.5	86	24.9	2	4	270	0.00	29.965 
16:40	28.5	28.5	28.5	86	24.9	2	5	270	0.00	29.965 
16:45	28.5	28.5	28.5	86	24.9	3	6	270	0.00	29.978 
16:50	28.7	28.7	28.7	86	25.1	2	5	270	0.00	29.978 
16:55	28.7	28.7	28.7	86	25.1	2	5	270	0.00	29.978 
17:00	28.8	28.8	28.8	86	25.2	3	5	270	0.00	29.992 
17:05	29.0	29.0	29.0	86	25.3	2	4	270	0.00	29.992 
17:10	29.1	29.1	29.1	86	25.4	2	4	270	0.00	29.992 
17:15	29.3	29.3	29.3	85	25.4	2	4	270	0.00	30.005 
17:20	29.3	29.3	29.3	85	25.4	2	5	270	0.00	30.005 
17:25	29.4	29.4	29.4	84	25.2	2	6	270	0.00	30.005 
17:30	29.5	29.5	29.5	83	25.0	2	4	315	0.00	30.020 
17:35	29.7	29.7	29.7	81	24.6	2	4	270	0.00	30.020 
17:40	29.8	29.8	29.8	74	22.5	3	9	270	0.00	30.020 
17:45	30.0	30.0	30.0	71	21.8	3	8	292	0.00	30.031 
17:50	30.1	30.1	30.1	69	21.2	3	10	292	0.00	30.031 
17:55	30.0	30.0	30.0	69	21.1	3	7	270	0.00	30.031 
18:00	29.8	29.8	29.8	66	19.8	2	5	292	0.00	30.044 
18:05	29.5	25.2	29.5	62	18.1	4	8	315	0.00	30.044 
18:10	29.4	29.4	29.4	62	18.0	3	7	292	0.00	30.044 
18:15	29.4	29.4	29.4	62	18.0	3	9	292	0.00	30.057 
18:20	29.4	29.4	29.4	62	18.0	2	7	270	0.00	30.057 
18:25	29.3	29.3	29.3	62	17.9	3	13	338	0.00	30.057 
18:30	29.1	29.1	29.1	62	17.7	2	6	270	0.00	30.073 
18:35	29.0	24.6	29.0	61	17.3	4	9	270	0.00	30.073 
18:40	28.8	24.4	28.8	61	17.1	4	8	315	0.00	30.073 
18:45	28.7	28.7	28.7	62	17.4	2	6	315	0.00	30.088 
18:50	28.5	28.5	28.5	61	16.8	3	10	315	0.00	30.088 
18:55	28.4	28.4	28.4	61	16.7	3	9	338	0.00	30.088 
19:00	28.2	28.2	28.2	61	16.5	2	9	338	0.00	30.105 
19:05	28.2	28.2	28.2	61	16.5	3	10	315	0.00	30.105 
19:10	28.1	28.1	28.1	61	16.4	2	5	338	0.00	30.105 
19:15	28.1	28.1	28.1	62	16.8	1	6	338	0.00	30.119 
19:20	27.9	27.9	27.9	62	16.6	2	6	338	0.00	30.119 
19:25	27.8	27.8	27.8	62	16.5	2	6	315	0.00	30.119 
19:30	27.8	27.8	27.8	62	16.5	2	8	338	0.00	30.132 
19:35	27.6	27.6	27.6	62	16.3	1	4	0	0.00	30.132 
19:40	27.5	27.5	27.5	62	16.2	1	5	315	0.00	30.132 
19:45	27.3	27.3	27.3	61	15.7	2	7	315	0.00	30.144 
19:50	27.2	27.2	27.2	62	15.9	2	7	338	0.00	30.144 
19:55	27.2	27.2	27.2	62	15.9	2	5	292	0.00	30.144 
20:00	27.2	27.2	27.2	62	15.9	2	5	292	0.00	30.155 
20:05	27.2	27.2	27.2	62	15.9	2	5	0	0.00	30.155 
20:10	27.0	27.0	27.0	62	15.7	2	5	0	0.00	30.155 
20:15	27.0	27.0	27.0	62	15.7	1	4	338	0.00	30.167 
20:20	26.9	26.9	26.9	63	16.0	1	4	270	0.00	30.167 
20:25	26.9	26.9	26.9	63	16.0	1	2	338	0.00	30.167 
20:30	26.7	26.7	26.7	63	15.8	2	6	270	0.00	30.170 
20:35	26.7	26.7	26.7	63	15.8	1	3	292	0.00	30.170 
20:40	26.7	26.7	26.7	63	15.8	1	4	338	0.00	30.170 
20:45	26.7	26.7	26.7	63	15.8	2	4	315	0.00	30.177 
20:50	26.7	26.7	26.7	64	16.2	2	5	315	0.00	30.177 
20:55	26.7	26.7	26.7	65	16.5	1	4	315	0.00	30.177 
21:00	26.6	26.6	26.6	65	16.4	1	4	338	0.00	30.182 
21:05	26.7	26.7	26.7	65	16.5	1	5	338	0.00	30.182 
21:10	26.6	26.6	26.6	66	16.8	1	5	292	0.00	30.182 
21:15	26.6	26.6	26.6	66	16.8	0	2	315	0.00	30.191 
21:20	26.4	26.4	26.4	66	16.6	1	6	292	0.00	30.191 
21:25	26.3	26.3	26.3	67	16.9	1	5	270	0.00	30.191 
21:30	26.1	26.1	26.1	67	16.7	1	6	270	0.00	30.198 
21:35	26.1	26.1	26.1	68	17.0	1	3	292	0.00	30.198 
21:40	26.0	26.0	26.0	68	16.9	1	4	270	0.00	30.198 
21:45	26.0	26.0	26.0	69	17.2	1	5	292	0.00	30.204 
21:50	26.0	26.0	26.0	69	17.2	1	6	315	0.00	30.204 
21:55	25.8	25.8	25.8	69	17.1	1	4	315	0.00	30.204 
22:00	25.8	25.8	25.8	70	17.4	1	3	315	0.00	30.213 
22:05	25.7	25.7	25.7	71	17.6	1	6	315	0.00	30.213 
22:10	25.6	25.6	25.6	72	17.8	1	3	338	0.00	30.213 
22:15	25.6	25.6	25.6	72	17.8	1	3	338	0.00	30.214 
22:20	25.6	25.6	25.6	73	18.2	1	3	248	0.00	30.214 
22:25	25.4	25.4	25.4	73	18.0	1	5	270	0.00	30.214 
22:30	25.4	25.4	25.4	74	18.3	1	4	315	0.00	30.229 
22:35	25.3	25.3	25.3	76	18.8	1	4	315	0.00	30.229 
22:40	25.1	25.1	25.1	75	18.3	2	5	0	0.00	30.229 
22:45	25.1	25.1	25.1	75	18.3	1	5	338	0.00	30.230 
22:50	25.1	25.1	25.1	75	18.3	1	3	270	0.00	30.230 
22:55	25.1	25.1	25.1	74	18.0	1	3	315	0.00	30.230 
23:00	25.1	25.1	25.1	73	17.7	1	5	225	0.00	30.237 
23:05	25.1	25.1	25.1	72	17.4	1	3	338	0.00	30.237 
23:10	25.1	25.1	25.1	72	17.4	1	3	270	0.00	30.237 
23:15	25.1	25.1	25.1	72	17.4	1	4	270	0.00	30.238 
23:20	25.0	25.0	25.0	71	16.9	1	3	292	0.00	30.238 
23:25	25.0	25.0	25.0	70	16.6	1	3	248	0.00	30.238 
23:30	25.0	25.0	25.0	70	16.6	1	3	248	0.00	30.245 
23:35	24.8	24.8	24.8	70	16.4	0	3	248	0.00	30.245 
23:40	24.8	24.8	24.8	69	16.1	1	4	270	0.00	30.245 
23:45	24.8	24.8	24.8	69	16.1	1	4	292	0.00	30.248 
23:50	24.8	24.8	24.8	69	16.1	1	2	338	0.00	30.248 
23:55	24.8	24.8	24.8	70	16.4	0	1	338	0.00	30.248 

CoCoRaHS
IN-AL-39
A2 Web Hosting
Creative Commons License
GoDaddy
search engine by freefind advanced

loaded 2018-11-17 06:30:07 • last modified 2010-11-18 10:43:29
Privacy PolicyDisclaimer
• wx.awcolley.com is powered by PmWiki v.2002016 •
• all content (unless otherwise noted) © 2018 A W Colley